<?xml version="1.0" encoding="UTF-8" standalone="no" ?>
<gpx xmlns="http://www.topografix.com/GPX/1/1" xmlns:xsi="http://www.w3.org/2001/XMLSchema-instance" xsi:schemaLocation="http://www.topografix.com/GPX/1/1 http://www.topografix.com/GPX/1/1/gpx.xsd" version="1.1" creator="VisuGPX - https://www.visugpx.com">
  <metadata>
    <name>MARCHE D AUTOMNE 4 - 2024</name>
    <desc><![CDATA[FAIT]]></desc>
  </metadata>
  <trk>
    <name><![CDATA[MARCHE AUTOMNE 4 LE  20/10/2024-20135053]]></name>
    <trkseg>
      <trkpt lat="49.04088" lon="1.94124">
        <ele>52</ele>
        <time>2025-01-19T12:37:00Z</time>
      </trkpt>
      <trkpt lat="49.04093" lon="1.94125">
        <ele>52</ele>
        <time>2025-01-19T12:37:07Z</time>
      </trkpt>
      <trkpt lat="49.04097" lon="1.9412">
        <ele>52</ele>
        <time>2025-01-19T12:37:14Z</time>
      </trkpt>
      <trkpt lat="49.04085" lon="1.9412">
        <ele>52</ele>
        <time>2025-01-19T12:37:30Z</time>
      </trkpt>
      <trkpt lat="49.04089" lon="1.9412">
        <ele>52</ele>
        <time>2025-01-19T12:37:35Z</time>
      </trkpt>
      <trkpt lat="49.04084" lon="1.94115">
        <ele>52</ele>
        <time>2025-01-19T12:37:43Z</time>
      </trkpt>
      <trkpt lat="49.04088" lon="1.94108">
        <ele>53</ele>
        <time>2025-01-19T12:37:51Z</time>
      </trkpt>
      <trkpt lat="49.0408" lon="1.94133">
        <ele>51</ele>
        <time>2025-01-19T12:38:15Z</time>
      </trkpt>
      <trkpt lat="49.04072" lon="1.94135">
        <ele>51</ele>
        <time>2025-01-19T12:38:26Z</time>
      </trkpt>
      <trkpt lat="49.04055" lon="1.9413">
        <ele>51</ele>
        <time>2025-01-19T12:38:49Z</time>
      </trkpt>
      <trkpt lat="49.04037" lon="1.94119">
        <ele>51</ele>
        <time>2025-01-19T12:39:15Z</time>
      </trkpt>
      <trkpt lat="49.04016" lon="1.94116">
        <ele>50</ele>
        <time>2025-01-19T12:39:43Z</time>
      </trkpt>
      <trkpt lat="49.03999" lon="1.94119">
        <ele>50</ele>
        <time>2025-01-19T12:40:06Z</time>
      </trkpt>
      <trkpt lat="49.03949" lon="1.94104">
        <ele>50</ele>
        <time>2025-01-19T12:41:14Z</time>
      </trkpt>
      <trkpt lat="49.0392" lon="1.94103">
        <ele>50</ele>
        <time>2025-01-19T12:41:53Z</time>
      </trkpt>
      <trkpt lat="49.03876" lon="1.94075">
        <ele>52</ele>
        <time>2025-01-19T12:42:57Z</time>
      </trkpt>
      <trkpt lat="49.03847" lon="1.94067">
        <ele>54</ele>
        <time>2025-01-19T12:43:36Z</time>
      </trkpt>
      <trkpt lat="49.03823" lon="1.94067">
        <ele>54</ele>
        <time>2025-01-19T12:44:08Z</time>
      </trkpt>
      <trkpt lat="49.03789" lon="1.94057">
        <ele>54</ele>
        <time>2025-01-19T12:44:54Z</time>
      </trkpt>
      <trkpt lat="49.0376" lon="1.9406">
        <ele>54</ele>
        <time>2025-01-19T12:45:33Z</time>
      </trkpt>
      <trkpt lat="49.03741" lon="1.94056">
        <ele>55</ele>
        <time>2025-01-19T12:45:58Z</time>
      </trkpt>
      <trkpt lat="49.03694" lon="1.94057">
        <ele>57</ele>
        <time>2025-01-19T12:47:01Z</time>
      </trkpt>
      <trkpt lat="49.0365" lon="1.9403">
        <ele>57</ele>
        <time>2025-01-19T12:48:04Z</time>
      </trkpt>
      <trkpt lat="49.0364" lon="1.94028">
        <ele>57</ele>
        <time>2025-01-19T12:48:18Z</time>
      </trkpt>
      <trkpt lat="49.03609" lon="1.94002">
        <ele>56</ele>
        <time>2025-01-19T12:49:05Z</time>
      </trkpt>
      <trkpt lat="49.03595" lon="1.94">
        <ele>56</ele>
        <time>2025-01-19T12:49:24Z</time>
      </trkpt>
      <trkpt lat="49.03571" lon="1.93988">
        <ele>55</ele>
        <time>2025-01-19T12:49:58Z</time>
      </trkpt>
      <trkpt lat="49.03522" lon="1.93935">
        <ele>54</ele>
        <time>2025-01-19T12:51:18Z</time>
      </trkpt>
      <trkpt lat="49.03506" lon="1.93927">
        <ele>54</ele>
        <time>2025-01-19T12:51:40Z</time>
      </trkpt>
      <trkpt lat="49.0349" lon="1.93911">
        <ele>54</ele>
        <time>2025-01-19T12:52:06Z</time>
      </trkpt>
      <trkpt lat="49.03467" lon="1.93899">
        <ele>54</ele>
        <time>2025-01-19T12:52:38Z</time>
      </trkpt>
      <trkpt lat="49.03457" lon="1.93882">
        <ele>55</ele>
        <time>2025-01-19T12:52:58Z</time>
      </trkpt>
      <trkpt lat="49.03422" lon="1.93861">
        <ele>54</ele>
        <time>2025-01-19T12:53:48Z</time>
      </trkpt>
      <trkpt lat="49.03388" lon="1.93826">
        <ele>53</ele>
        <time>2025-01-19T12:54:43Z</time>
      </trkpt>
      <trkpt lat="49.03368" lon="1.93766">
        <ele>56</ele>
        <time>2025-01-19T12:55:42Z</time>
      </trkpt>
      <trkpt lat="49.03335" lon="1.93704">
        <ele>61</ele>
        <time>2025-01-19T12:56:52Z</time>
      </trkpt>
      <trkpt lat="49.03332" lon="1.9369">
        <ele>63</ele>
        <time>2025-01-19T12:57:05Z</time>
      </trkpt>
      <trkpt lat="49.03337" lon="1.93649">
        <ele>67</ele>
        <time>2025-01-19T12:57:41Z</time>
      </trkpt>
      <trkpt lat="49.03333" lon="1.9364">
        <ele>67</ele>
        <time>2025-01-19T12:57:51Z</time>
      </trkpt>
      <trkpt lat="49.03328" lon="1.93639">
        <ele>67</ele>
        <time>2025-01-19T12:57:58Z</time>
      </trkpt>
      <trkpt lat="49.03312" lon="1.93652">
        <ele>64</ele>
        <time>2025-01-19T12:58:22Z</time>
      </trkpt>
      <trkpt lat="49.03282" lon="1.93701">
        <ele>56</ele>
        <time>2025-01-19T12:59:20Z</time>
      </trkpt>
      <trkpt lat="49.03258" lon="1.93697">
        <ele>53</ele>
        <time>2025-01-19T12:59:53Z</time>
      </trkpt>
      <trkpt lat="49.03233" lon="1.93711">
        <ele>51</ele>
        <time>2025-01-19T13:00:28Z</time>
      </trkpt>
      <trkpt lat="49.03217" lon="1.93706">
        <ele>50</ele>
        <time>2025-01-19T13:00:50Z</time>
      </trkpt>
      <trkpt lat="49.03172" lon="1.93704">
        <ele>49</ele>
        <time>2025-01-19T13:01:50Z</time>
      </trkpt>
      <trkpt lat="49.0315" lon="1.93666">
        <ele>48</ele>
        <time>2025-01-19T13:02:34Z</time>
      </trkpt>
      <trkpt lat="49.03136" lon="1.93667">
        <ele>48</ele>
        <time>2025-01-19T13:02:53Z</time>
      </trkpt>
      <trkpt lat="49.0313" lon="1.93663">
        <ele>47</ele>
        <time>2025-01-19T13:03:02Z</time>
      </trkpt>
      <trkpt lat="49.03105" lon="1.93588">
        <ele>46</ele>
        <time>2025-01-19T13:04:15Z</time>
      </trkpt>
      <trkpt lat="49.03068" lon="1.93532">
        <ele>46</ele>
        <time>2025-01-19T13:05:25Z</time>
      </trkpt>
      <trkpt lat="49.03053" lon="1.93522">
        <ele>46</ele>
        <time>2025-01-19T13:05:47Z</time>
      </trkpt>
      <trkpt lat="49.03038" lon="1.93495">
        <ele>46</ele>
        <time>2025-01-19T13:06:18Z</time>
      </trkpt>
      <trkpt lat="49.03023" lon="1.93483">
        <ele>46</ele>
        <time>2025-01-19T13:06:40Z</time>
      </trkpt>
      <trkpt lat="49.02989" lon="1.9338">
        <ele>49</ele>
        <time>2025-01-19T13:08:21Z</time>
      </trkpt>
      <trkpt lat="49.02989" lon="1.93371">
        <ele>50</ele>
        <time>2025-01-19T13:08:29Z</time>
      </trkpt>
      <trkpt lat="49.02991" lon="1.93374">
        <ele>50</ele>
        <time>2025-01-19T13:08:33Z</time>
      </trkpt>
      <trkpt lat="49.02996" lon="1.93364">
        <ele>51</ele>
        <time>2025-01-19T13:08:44Z</time>
      </trkpt>
      <trkpt lat="49.02992" lon="1.93363">
        <ele>50</ele>
        <time>2025-01-19T13:08:49Z</time>
      </trkpt>
      <trkpt lat="49.02964" lon="1.93311">
        <ele>49</ele>
        <time>2025-01-19T13:09:48Z</time>
      </trkpt>
      <trkpt lat="49.02931" lon="1.93278">
        <ele>47</ele>
        <time>2025-01-19T13:10:41Z</time>
      </trkpt>
      <trkpt lat="49.02898" lon="1.9322">
        <ele>47</ele>
        <time>2025-01-19T13:11:48Z</time>
      </trkpt>
      <trkpt lat="49.0288" lon="1.93204">
        <ele>46</ele>
        <time>2025-01-19T13:12:16Z</time>
      </trkpt>
      <trkpt lat="49.02861" lon="1.93172">
        <ele>45</ele>
        <time>2025-01-19T13:12:54Z</time>
      </trkpt>
      <trkpt lat="49.02851" lon="1.93138">
        <ele>44</ele>
        <time>2025-01-19T13:13:26Z</time>
      </trkpt>
      <trkpt lat="49.02823" lon="1.9309">
        <ele>42</ele>
        <time>2025-01-19T13:14:22Z</time>
      </trkpt>
      <trkpt lat="49.02784" lon="1.93">
        <ele>42</ele>
        <time>2025-01-19T13:15:57Z</time>
      </trkpt>
      <trkpt lat="49.02766" lon="1.9298">
        <ele>42</ele>
        <time>2025-01-19T13:16:27Z</time>
      </trkpt>
      <trkpt lat="49.0273" lon="1.92892">
        <ele>44</ele>
        <time>2025-01-19T13:17:57Z</time>
      </trkpt>
      <trkpt lat="49.02713" lon="1.92876">
        <ele>43</ele>
        <time>2025-01-19T13:18:24Z</time>
      </trkpt>
      <trkpt lat="49.02693" lon="1.92847">
        <ele>43</ele>
        <time>2025-01-19T13:19:01Z</time>
      </trkpt>
      <trkpt lat="49.02663" lon="1.92848">
        <ele>41</ele>
        <time>2025-01-19T13:19:41Z</time>
      </trkpt>
      <trkpt lat="49.02638" lon="1.92861">
        <ele>40</ele>
        <time>2025-01-19T13:20:16Z</time>
      </trkpt>
      <trkpt lat="49.02598" lon="1.92872">
        <ele>40</ele>
        <time>2025-01-19T13:21:10Z</time>
      </trkpt>
      <trkpt lat="49.0259" lon="1.92872">
        <ele>40</ele>
        <time>2025-01-19T13:21:21Z</time>
      </trkpt>
      <trkpt lat="49.0258" lon="1.92866">
        <ele>41</ele>
        <time>2025-01-19T13:21:35Z</time>
      </trkpt>
      <trkpt lat="49.0257" lon="1.92843">
        <ele>42</ele>
        <time>2025-01-19T13:21:59Z</time>
      </trkpt>
      <trkpt lat="49.02561" lon="1.92778">
        <ele>41</ele>
        <time>2025-01-19T13:22:58Z</time>
      </trkpt>
      <trkpt lat="49.02543" lon="1.92724">
        <ele>40</ele>
        <time>2025-01-19T13:23:51Z</time>
      </trkpt>
      <trkpt lat="49.0253" lon="1.92716">
        <ele>40</ele>
        <time>2025-01-19T13:24:09Z</time>
      </trkpt>
      <trkpt lat="49.02508" lon="1.92689">
        <ele>39</ele>
        <time>2025-01-19T13:24:47Z</time>
      </trkpt>
      <trkpt lat="49.02471" lon="1.92666">
        <ele>39</ele>
        <time>2025-01-19T13:25:40Z</time>
      </trkpt>
      <trkpt lat="49.02462" lon="1.92632">
        <ele>39</ele>
        <time>2025-01-19T13:26:12Z</time>
      </trkpt>
      <trkpt lat="49.02458" lon="1.92585">
        <ele>38</ele>
        <time>2025-01-19T13:26:54Z</time>
      </trkpt>
      <trkpt lat="49.02449" lon="1.92563">
        <ele>37</ele>
        <time>2025-01-19T13:27:17Z</time>
      </trkpt>
      <trkpt lat="49.02426" lon="1.92527">
        <ele>36</ele>
        <time>2025-01-19T13:28:01Z</time>
      </trkpt>
      <trkpt lat="49.0237" lon="1.92473">
        <ele>36</ele>
        <time>2025-01-19T13:29:29Z</time>
      </trkpt>
      <trkpt lat="49.02324" lon="1.92416">
        <ele>35</ele>
        <time>2025-01-19T13:30:48Z</time>
      </trkpt>
      <trkpt lat="49.02323" lon="1.92401">
        <ele>35</ele>
        <time>2025-01-19T13:31:01Z</time>
      </trkpt>
      <trkpt lat="49.0233" lon="1.92389">
        <ele>34</ele>
        <time>2025-01-19T13:31:15Z</time>
      </trkpt>
      <trkpt lat="49.02348" lon="1.92375">
        <ele>34</ele>
        <time>2025-01-19T13:31:42Z</time>
      </trkpt>
      <trkpt lat="49.02392" lon="1.92317">
        <ele>35</ele>
        <time>2025-01-19T13:33:00Z</time>
      </trkpt>
      <trkpt lat="49.02424" lon="1.9229">
        <ele>36</ele>
        <time>2025-01-19T13:33:49Z</time>
      </trkpt>
      <trkpt lat="49.02465" lon="1.92234">
        <ele>40</ele>
        <time>2025-01-19T13:35:02Z</time>
      </trkpt>
      <trkpt lat="49.02468" lon="1.92209">
        <ele>41</ele>
        <time>2025-01-19T13:35:24Z</time>
      </trkpt>
      <trkpt lat="49.02453" lon="1.92146">
        <ele>42</ele>
        <time>2025-01-19T13:36:23Z</time>
      </trkpt>
      <trkpt lat="49.02455" lon="1.92115">
        <ele>42</ele>
        <time>2025-01-19T13:36:50Z</time>
      </trkpt>
      <trkpt lat="49.02452" lon="1.92086">
        <ele>42</ele>
        <time>2025-01-19T13:37:16Z</time>
      </trkpt>
      <trkpt lat="49.02419" lon="1.92008">
        <ele>44</ele>
        <time>2025-01-19T13:38:37Z</time>
      </trkpt>
      <trkpt lat="49.02414" lon="1.91931">
        <ele>46</ele>
        <time>2025-01-19T13:39:45Z</time>
      </trkpt>
      <trkpt lat="49.02397" lon="1.91896">
        <ele>46</ele>
        <time>2025-01-19T13:40:23Z</time>
      </trkpt>
      <trkpt lat="49.02398" lon="1.9189">
        <ele>46</ele>
        <time>2025-01-19T13:40:28Z</time>
      </trkpt>
      <trkpt lat="49.02398" lon="1.91894">
        <ele>46</ele>
        <time>2025-01-19T13:40:32Z</time>
      </trkpt>
      <trkpt lat="49.02393" lon="1.91892">
        <ele>46</ele>
        <time>2025-01-19T13:40:39Z</time>
      </trkpt>
      <trkpt lat="49.02367" lon="1.91852">
        <ele>46</ele>
        <time>2025-01-19T13:41:28Z</time>
      </trkpt>
      <trkpt lat="49.02336" lon="1.91778">
        <ele>45</ele>
        <time>2025-01-19T13:42:45Z</time>
      </trkpt>
      <trkpt lat="49.02321" lon="1.91768">
        <ele>44</ele>
        <time>2025-01-19T13:43:07Z</time>
      </trkpt>
      <trkpt lat="49.02309" lon="1.9175">
        <ele>43</ele>
        <time>2025-01-19T13:43:29Z</time>
      </trkpt>
      <trkpt lat="49.02273" lon="1.91669">
        <ele>43</ele>
        <time>2025-01-19T13:44:55Z</time>
      </trkpt>
      <trkpt lat="49.02254" lon="1.91641">
        <ele>42</ele>
        <time>2025-01-19T13:45:30Z</time>
      </trkpt>
      <trkpt lat="49.02207" lon="1.91598">
        <ele>41</ele>
        <time>2025-01-19T13:46:43Z</time>
      </trkpt>
      <trkpt lat="49.02155" lon="1.91538">
        <ele>40</ele>
        <time>2025-01-19T13:48:10Z</time>
      </trkpt>
      <trkpt lat="49.02129" lon="1.915">
        <ele>39</ele>
        <time>2025-01-19T13:48:58Z</time>
      </trkpt>
      <trkpt lat="49.02108" lon="1.91458">
        <ele>38</ele>
        <time>2025-01-19T13:49:45Z</time>
      </trkpt>
      <trkpt lat="49.02071" lon="1.91424">
        <ele>36</ele>
        <time>2025-01-19T13:50:42Z</time>
      </trkpt>
      <trkpt lat="49.02054" lon="1.91414">
        <ele>36</ele>
        <time>2025-01-19T13:51:07Z</time>
      </trkpt>
      <trkpt lat="49.0204" lon="1.914">
        <ele>36</ele>
        <time>2025-01-19T13:51:29Z</time>
      </trkpt>
      <trkpt lat="49.02037" lon="1.91392">
        <ele>36</ele>
        <time>2025-01-19T13:51:37Z</time>
      </trkpt>
      <trkpt lat="49.02023" lon="1.91384">
        <ele>36</ele>
        <time>2025-01-19T13:51:57Z</time>
      </trkpt>
      <trkpt lat="49.01958" lon="1.91366">
        <ele>34</ele>
        <time>2025-01-19T13:53:25Z</time>
      </trkpt>
      <trkpt lat="49.01949" lon="1.91356">
        <ele>34</ele>
        <time>2025-01-19T13:53:40Z</time>
      </trkpt>
      <trkpt lat="49.01929" lon="1.91346">
        <ele>34</ele>
        <time>2025-01-19T13:54:08Z</time>
      </trkpt>
      <trkpt lat="49.01919" lon="1.91333">
        <ele>34</ele>
        <time>2025-01-19T13:54:26Z</time>
      </trkpt>
      <trkpt lat="49.01882" lon="1.91312">
        <ele>34</ele>
        <time>2025-01-19T13:55:18Z</time>
      </trkpt>
      <trkpt lat="49.01841" lon="1.91277">
        <ele>34</ele>
        <time>2025-01-19T13:56:21Z</time>
      </trkpt>
      <trkpt lat="49.01791" lon="1.91224">
        <ele>33</ele>
        <time>2025-01-19T13:57:42Z</time>
      </trkpt>
      <trkpt lat="49.01756" lon="1.91207">
        <ele>32</ele>
        <time>2025-01-19T13:58:31Z</time>
      </trkpt>
      <trkpt lat="49.01698" lon="1.91169">
        <ele>29</ele>
        <time>2025-01-19T13:59:55Z</time>
      </trkpt>
      <trkpt lat="49.01639" lon="1.91112">
        <ele>29</ele>
        <time>2025-01-19T14:01:29Z</time>
      </trkpt>
      <trkpt lat="49.01636" lon="1.9111">
        <ele>29</ele>
        <time>2025-01-19T14:01:33Z</time>
      </trkpt>
      <trkpt lat="49.01631" lon="1.91121">
        <ele>28</ele>
        <time>2025-01-19T14:01:45Z</time>
      </trkpt>
      <trkpt lat="49.01625" lon="1.91122">
        <ele>28</ele>
        <time>2025-01-19T14:01:53Z</time>
      </trkpt>
      <trkpt lat="49.01603" lon="1.91108">
        <ele>28</ele>
        <time>2025-01-19T14:02:25Z</time>
      </trkpt>
      <trkpt lat="49.01587" lon="1.91088">
        <ele>28</ele>
        <time>2025-01-19T14:02:52Z</time>
      </trkpt>
      <trkpt lat="49.01555" lon="1.91067">
        <ele>28</ele>
        <time>2025-01-19T14:03:39Z</time>
      </trkpt>
      <trkpt lat="49.0153" lon="1.91063">
        <ele>27</ele>
        <time>2025-01-19T14:04:12Z</time>
      </trkpt>
      <trkpt lat="49.01487" lon="1.91039">
        <ele>26</ele>
        <time>2025-01-19T14:05:13Z</time>
      </trkpt>
      <trkpt lat="49.01458" lon="1.91017">
        <ele>26</ele>
        <time>2025-01-19T14:05:57Z</time>
      </trkpt>
      <trkpt lat="49.0142" lon="1.90969">
        <ele>26</ele>
        <time>2025-01-19T14:07:02Z</time>
      </trkpt>
      <trkpt lat="49.01406" lon="1.90957">
        <ele>27</ele>
        <time>2025-01-19T14:07:24Z</time>
      </trkpt>
      <trkpt lat="49.01386" lon="1.90948">
        <ele>27</ele>
        <time>2025-01-19T14:07:52Z</time>
      </trkpt>
      <trkpt lat="49.0136" lon="1.90925">
        <ele>26</ele>
        <time>2025-01-19T14:08:32Z</time>
      </trkpt>
      <trkpt lat="49.0134" lon="1.90917">
        <ele>26</ele>
        <time>2025-01-19T14:08:59Z</time>
      </trkpt>
      <trkpt lat="49.01309" lon="1.90929">
        <ele>28</ele>
        <time>2025-01-19T14:09:42Z</time>
      </trkpt>
      <trkpt lat="49.01292" lon="1.90927">
        <ele>30</ele>
        <time>2025-01-19T14:10:05Z</time>
      </trkpt>
      <trkpt lat="49.01266" lon="1.90881">
        <ele>28</ele>
        <time>2025-01-19T14:10:58Z</time>
      </trkpt>
      <trkpt lat="49.01259" lon="1.90842">
        <ele>27</ele>
        <time>2025-01-19T14:11:33Z</time>
      </trkpt>
      <trkpt lat="49.01266" lon="1.90822">
        <ele>27</ele>
        <time>2025-01-19T14:11:53Z</time>
      </trkpt>
      <trkpt lat="49.0126" lon="1.90811">
        <ele>26</ele>
        <time>2025-01-19T14:12:06Z</time>
      </trkpt>
      <trkpt lat="49.01189" lon="1.90766">
        <ele>25</ele>
        <time>2025-01-19T14:13:48Z</time>
      </trkpt>
      <trkpt lat="49.01179" lon="1.90751">
        <ele>24</ele>
        <time>2025-01-19T14:14:07Z</time>
      </trkpt>
      <trkpt lat="49.01164" lon="1.90748">
        <ele>24</ele>
        <time>2025-01-19T14:14:27Z</time>
      </trkpt>
      <trkpt lat="49.01138" lon="1.90718">
        <ele>24</ele>
        <time>2025-01-19T14:15:11Z</time>
      </trkpt>
      <trkpt lat="49.01107" lon="1.90698">
        <ele>23</ele>
        <time>2025-01-19T14:15:56Z</time>
      </trkpt>
      <trkpt lat="49.01075" lon="1.90669">
        <ele>23</ele>
        <time>2025-01-19T14:16:45Z</time>
      </trkpt>
      <trkpt lat="49.0106" lon="1.9065">
        <ele>23</ele>
        <time>2025-01-19T14:17:11Z</time>
      </trkpt>
      <trkpt lat="49.01038" lon="1.90636">
        <ele>24</ele>
        <time>2025-01-19T14:17:43Z</time>
      </trkpt>
      <trkpt lat="49.00998" lon="1.90601">
        <ele>25</ele>
        <time>2025-01-19T14:18:45Z</time>
      </trkpt>
      <trkpt lat="49.01001" lon="1.90572">
        <ele>24</ele>
        <time>2025-01-19T14:19:10Z</time>
      </trkpt>
      <trkpt lat="49.01022" lon="1.90532">
        <ele>22</ele>
        <time>2025-01-19T14:19:55Z</time>
      </trkpt>
      <trkpt lat="49.01037" lon="1.90488">
        <ele>22</ele>
        <time>2025-01-19T14:20:39Z</time>
      </trkpt>
      <trkpt lat="49.01043" lon="1.90458">
        <ele>22</ele>
        <time>2025-01-19T14:21:06Z</time>
      </trkpt>
      <trkpt lat="49.01041" lon="1.90447">
        <ele>22</ele>
        <time>2025-01-19T14:21:16Z</time>
      </trkpt>
      <trkpt lat="49.01016" lon="1.90384">
        <ele>21</ele>
        <time>2025-01-19T14:22:21Z</time>
      </trkpt>
      <trkpt lat="49.00979" lon="1.90262">
        <ele>22</ele>
        <time>2025-01-19T14:24:18Z</time>
      </trkpt>
      <trkpt lat="49.00961" lon="1.90217">
        <ele>22</ele>
        <time>2025-01-19T14:25:04Z</time>
      </trkpt>
      <trkpt lat="49.00947" lon="1.90159">
        <ele>22</ele>
        <time>2025-01-19T14:25:58Z</time>
      </trkpt>
      <trkpt lat="49.00866" lon="1.89952">
        <ele>23</ele>
        <time>2025-01-19T14:29:29Z</time>
      </trkpt>
      <trkpt lat="49.00841" lon="1.8992">
        <ele>23</ele>
        <time>2025-01-19T14:30:13Z</time>
      </trkpt>
      <trkpt lat="49.00819" lon="1.89909">
        <ele>24</ele>
        <time>2025-01-19T14:30:44Z</time>
      </trkpt>
      <trkpt lat="49.00783" lon="1.89913">
        <ele>24</ele>
        <time>2025-01-19T14:31:32Z</time>
      </trkpt>
      <trkpt lat="49.00694" lon="1.89945">
        <ele>24</ele>
        <time>2025-01-19T14:33:34Z</time>
      </trkpt>
      <trkpt lat="49.00641" lon="1.89971">
        <ele>24</ele>
        <time>2025-01-19T14:34:48Z</time>
      </trkpt>
      <trkpt lat="49.00601" lon="1.90006">
        <ele>27</ele>
        <time>2025-01-19T14:35:50Z</time>
      </trkpt>
      <trkpt lat="49.00597" lon="1.90014">
        <ele>27</ele>
        <time>2025-01-19T14:35:59Z</time>
      </trkpt>
      <trkpt lat="49.00599" lon="1.90057">
        <ele>27</ele>
        <time>2025-01-19T14:36:37Z</time>
      </trkpt>
      <trkpt lat="49.00612" lon="1.90091">
        <ele>26</ele>
        <time>2025-01-19T14:37:11Z</time>
      </trkpt>
      <trkpt lat="49.00613" lon="1.90128">
        <ele>26</ele>
        <time>2025-01-19T14:37:43Z</time>
      </trkpt>
      <trkpt lat="49.00634" lon="1.90205">
        <ele>25</ele>
        <time>2025-01-19T14:38:56Z</time>
      </trkpt>
      <trkpt lat="49.00641" lon="1.9029">
        <ele>25</ele>
        <time>2025-01-19T14:40:11Z</time>
      </trkpt>
      <trkpt lat="49.00654" lon="1.90299">
        <ele>24</ele>
        <time>2025-01-19T14:40:30Z</time>
      </trkpt>
      <trkpt lat="49.00637" lon="1.90286">
        <ele>25</ele>
        <time>2025-01-19T14:40:56Z</time>
      </trkpt>
      <trkpt lat="49.00644" lon="1.90306">
        <ele>24</ele>
        <time>2025-01-19T14:41:16Z</time>
      </trkpt>
      <trkpt lat="49.00639" lon="1.90368">
        <ele>24</ele>
        <time>2025-01-19T14:42:10Z</time>
      </trkpt>
      <trkpt lat="49.00632" lon="1.90396">
        <ele>24</ele>
        <time>2025-01-19T14:42:37Z</time>
      </trkpt>
      <trkpt lat="49.00633" lon="1.90389">
        <ele>24</ele>
        <time>2025-01-19T14:42:43Z</time>
      </trkpt>
      <trkpt lat="49.00637" lon="1.90389">
        <ele>24</ele>
        <time>2025-01-19T14:42:48Z</time>
      </trkpt>
    </trkseg>
  </trk>
</gpx>